Time;durP1;ratioP1;P1;durP2;ratioP2;P2;SDS_P1;SDS_P2;PMS_P1;PMS_P2;Temp;Humidity;BMP_temperature;BMP_pressure;BME280_temperature;BME280_humidity;BME280_pressure;Samples;Min_cycle;Max_cycle;Signal;HPM_P1;HPM_P2
2023/05/16 00:02:15;;;;;;;71.23;38.63;;;;;;;-141.97;100.00;47780.47;4977349;28;20243;-83
2023/05/16 00:04:41;;;;;;;69.57;37.10;;;;;;;-141.97;100.00;47815.09;4995075;28;20663;-82
2023/05/16 00:07:07;;;;;;;66.90;36.67;;;;;;;-141.97;100.00;47799.72;4995270;28;20159;-82
2023/05/16 00:09:32;;;;;;;74.80;38.33;;;;;;;-141.97;100.00;47757.41;4994853;28;20163;-84
2023/05/16 00:11:58;;;;;;;76.27;38.27;;;;;;;-141.97;100.00;47692.06;4994538;28;20172;-83
2023/05/16 00:14:25;;;;;;;75.40;37.90;;;;;;;-141.97;100.00;47797.78;4976509;28;20179;-83
2023/05/16 00:16:52;;;;;;;73.70;37.73;;;;;;;-141.97;100.00;47793.94;4994294;28;20269;-83
2023/05/16 00:19:17;;;;;;;76.27;38.67;;;;;;;-141.97;100.00;47780.47;4995086;28;20226;-83
2023/05/16 00:21:43;;;;;;;76.20;38.90;;;;;;;-141.97;100.00;47792.03;5006411;28;20193;-83
2023/05/16 00:24:09;;;;;;;74.83;38.83;;;;;;;-141.97;100.00;47747.81;5008749;28;20186;-82
2023/05/16 00:26:34;;;;;;;77.20;38.43;;;;;;;-141.97;100.00;47753.56;4994664;28;20636;-83
2023/05/16 00:29:01;;;;;;;74.87;38.33;;;;;;;-141.97;100.00;47786.25;4994919;28;20230;-83
2023/05/16 00:31:26;;;;;;;82.23;38.73;;;;;;;-141.97;100.00;47792.03;4976929;28;20179;-83
2023/05/16 00:33:52;;;;;;;74.50;38.93;;;;;;;-141.97;100.00;47807.41;4994443;28;20178;-83
2023/05/16 00:36:18;;;;;;;74.97;38.90;;;;;;;-141.97;100.00;47768.94;4994028;28;20571;-83
2023/05/16 00:38:43;;;;;;;73.27;38.70;;;;;;;-141.97;100.00;47705.53;4976591;28;20230;-83
2023/05/16 00:41:08;;;;;;;77.27;39.60;;;;;;;-141.97;100.00;47822.78;4976275;28;20183;-83
2023/05/16 00:43:34;;;;;;;79.23;40.27;;;;;;;-141.97;100.00;47722.81;4993055;28;20183;-83
2023/05/16 00:46:00;;;;;;;74.67;39.30;;;;;;;-141.97;100.00;47941.94;4994178;28;20179;-83
2023/05/16 00:48:25;;;;;;;74.53;38.57;;;;;;;-141.97;100.00;47761.25;4994065;28;20168;-83
2023/05/16 00:50:52;;;;;;;76.70;39.23;;;;;;;-141.97;100.00;47870.81;4993336;28;20255;-82
2023/05/16 00:53:18;;;;;;;76.00;38.60;;;;;;;-141.97;100.00;47780.47;4992706;28;20168;-82
2023/05/16 00:55:44;;;;;;;80.87;39.90;;;;;;;-141.97;100.00;47770.88;4993910;28;20725;-83
2023/05/16 00:58:10;;;;;;;77.30;38.70;;;;;;;-141.97;100.00;47742.03;4994353;28;20163;-83
2023/05/16 01:00:36;;;;;;;73.80;39.47;;;;;;;-141.97;100.00;47780.47;4994096;28;20163;-83
2023/05/16 01:03:04;;;;;;;77.13;39.33;;;;;;;-141.97;100.00;47768.94;4993380;28;20226;-83
2023/05/16 01:05:30;;;;;;;78.07;39.63;;;;;;;-141.97;100.00;47749.72;4993984;28;20191;-82
2023/05/16 01:07:55;;;;;;;81.27;39.83;;;;;;;-141.97;100.00;47768.94;4994018;28;20174;-83
2023/05/16 01:10:21;;;;;;;79.33;38.77;;;;;;;-141.97;100.00;47872.75;4993186;28;20261;-84
2023/05/16 01:13:06;;;;;;;74.87;38.33;;;;;;;-141.97;100.00;47797.78;4993981;28;20175;-83
2023/05/16 01:16:14;;;;;;;80.17;40.13;;;;;;;-141.97;100.00;47792.03;4994034;28;20178;-83
2023/05/16 01:18:49;;;;;;;76.03;39.70;;;;;;;-141.97;100.00;47770.88;4933074;29;20196;-83
2023/05/16 01:21:41;;;;;;;87.47;43.23;;;;;;;-141.97;100.00;47776.63;4933571;29;20204;-83
2023/05/16 01:24:31;;;;;;;84.83;40.93;;;;;;;-141.97;100.00;47792.03;4933548;29;20289;-83
2023/05/16 01:26:58;;;;;;;82.23;41.17;;;;;;;-141.97;100.00;47799.72;4934229;29;20196;-84
2023/05/16 01:29:24;;;;;;;83.80;42.00;;;;;;;-141.97;100.00;47790.09;4933955;29;20197;-84
2023/05/16 01:31:49;;;;;;;84.07;41.47;;;;;;;-141.97;100.00;47790.09;4933832;29;20185;-83
2023/05/16 01:34:15;;;;;;;82.77;42.60;;;;;;;-141.97;100.00;47765.09;4933596;29;20201;-83
2023/05/16 01:36:47;;;;;;;80.53;41.43;;;;;;;-141.97;100.00;47788.19;4933204;29;20277;-83
2023/05/16 01:39:15;;;;;;;82.70;41.63;;;;;;;-141.97;100.00;47757.41;4933495;29;20209;-83
2023/05/16 01:41:59;;;;;;;78.53;40.90;;;;;;;-141.97;100.00;47793.94;4934185;29;20595;-83
2023/05/16 01:44:32;;;;;;;78.70;40.37;;;;;;;-141.97;100.00;47768.94;4933961;29;20174;-84
2023/05/16 01:47:01;;;;;;;85.13;41.57;;;;;;;-141.97;100.00;47763.19;4933682;29;20169;-82
2023/05/16 01:49:43;;;;;;;81.53;41.00;;;;;;;-141.97;100.00;47786.25;4932971;29;20232;-83
2023/05/16 01:52:13;;;;;;;81.53;40.53;;;;;;;-141.97;100.00;47795.88;4933535;29;20170;-83
2023/05/16 01:54:44;;;;;;;79.30;41.13;;;;;;;-141.97;100.00;47770.88;4938466;28;20166;-82
2023/05/16 01:57:11;;;;;;;79.20;41.13;;;;;;;-141.97;100.00;47761.25;4993040;28;20199;-83
2023/05/16 01:59:38;;;;;;;85.33;42.67;;;;;;;-141.97;100.00;47780.47;4992784;28;20672;-83
2023/05/16 02:02:04;;;;;;;85.43;42.33;;;;;;;-141.97;100.00;47749.72;4976200;28;20198;-83
2023/05/16 02:04:30;;;;;;;87.70;42.67;;;;;;;-141.97;100.00;47749.72;4996488;28;20191;-83
2023/05/16 02:06:55;;;;;;;88.70;42.23;;;;;;;-141.97;100.00;47797.78;4978759;28;20183;-83
2023/05/16 02:09:21;;;;;;;88.73;42.33;;;;;;;-141.97;100.00;47684.38;4996508;28;20198;-83
2023/05/16 02:11:47;;;;;;;84.70;42.63;;;;;;;-141.97;100.00;47763.19;4996812;28;20172;-83
2023/05/16 02:14:12;;;;;;;81.90;42.63;;;;;;;-141.97;100.00;47799.72;4996935;28;20310;-83
2023/05/16 02:16:38;;;;;;;82.90;42.03;;;;;;;-141.97;100.00;47751.66;4996663;28;20284;-83
2023/05/16 02:19:03;;;;;;;85.13;41.97;;;;;;;-141.97;100.00;47753.56;4996731;28;20171;-83
2023/05/16 02:21:28;;;;;;;77.83;40.77;;;;;;;-141.97;100.00;47768.94;4997161;28;20214;-82
2023/05/16 02:23:54;;;;;;;87.00;43.00;;;;;;;-141.97;100.00;47782.41;4996482;28;20167;-82
2023/05/16 02:26:20;;;;;;;87.33;43.03;;;;;;;-141.97;100.00;47772.78;4996316;28;20297;-82
2023/05/16 02:28:48;;;;;;;89.40;42.87;;;;;;;-141.97;100.00;47765.09;4996370;28;20170;-83
2023/05/16 02:31:24;;;;;;;91.20;44.13;;;;;;;-141.97;100.00;47790.09;4995512;28;20163;-83
2023/05/16 02:33:50;;;;;;;93.60;44.03;;;;;;;-141.97;100.00;47768.94;4994724;28;20270;-83
2023/05/16 02:36:15;;;;;;;87.23;43.10;;;;;;;-141.97;100.00;47765.09;4995375;28;20620;-83
2023/05/16 02:38:41;;;;;;;89.27;43.07;;;;;;;-141.97;100.00;47893.91;4996137;28;20171;-82
2023/05/16 02:41:06;;;;;;;92.03;43.53;;;;;;;-141.97;100.00;47790.09;4996128;28;20168;-83
2023/05/16 02:43:31;;;;;;;82.43;42.13;;;;;;;-141.97;100.00;47811.25;4996336;28;20320;-83
2023/05/16 02:45:57;;;;;;;89.70;43.07;;;;;;;-141.97;100.00;47805.47;4996286;28;20179;-83
2023/05/16 02:48:22;;;;;;;87.93;43.20;;;;;;;-141.97;100.00;47786.25;4996237;28;20214;-82
2023/05/16 02:50:48;;;;;;;91.40;43.73;;;;;;;-141.97;100.00;47772.78;4995871;28;20168;-83
2023/05/16 02:53:13;;;;;;;95.97;43.20;;;;;;;-141.97;100.00;47968.88;4996291;28;20168;-83
2023/05/16 02:55:38;;;;;;;94.47;43.53;;;;;;;-141.97;100.00;47745.88;4995922;28;20179;-84
2023/05/16 02:58:04;;;;;;;96.20;44.63;;;;;;;-141.97;100.00;47788.19;4995775;28;20199;-83
2023/05/16 03:00:29;;;;;;;98.00;44.67;;;;;;;-141.97;100.00;47753.56;4995876;28;20177;-84
2023/05/16 03:02:55;;;;;;;99.37;44.50;;;;;;;-141.97;100.00;47778.56;4997063;28;20246;-82
2023/05/16 03:05:20;;;;;;;96.70;46.80;;;;;;;-141.97;100.00;47792.03;4996970;28;20203;-83
2023/05/16 03:07:45;;;;;;;98.90;45.67;;;;;;;-141.97;100.00;47792.03;4996976;28;20201;-83
2023/05/16 03:10:11;;;;;;;104.77;48.17;;;;;;;-141.97;100.00;47807.41;4978916;28;20520;-83
2023/05/16 03:12:36;;;;;;;114.50;51.40;;;;;;;-141.97;100.00;47795.88;4997400;28;20632;-83
2023/05/16 03:15:02;;;;;;;116.53;50.47;;;;;;;-141.97;100.00;47803.56;4997822;28;20179;-84
2023/05/16 03:17:28;;;;;;;108.63;50.30;;;;;;;-141.97;100.00;47807.41;4999017;28;20191;-83
2023/05/16 03:19:53;;;;;;;105.47;49.37;;;;;;;-141.97;100.00;47765.09;5016035;28;20180;-82
2023/05/16 03:22:19;;;;;;;101.10;46.67;;;;;;;-141.97;100.00;47722.81;5000907;28;20175;-83
2023/05/16 03:24:44;;;;;;;98.43;44.90;;;;;;;-141.97;100.00;47772.78;4997140;28;20195;-83
2023/05/16 03:27:10;;;;;;;96.43;43.60;;;;;;;-141.97;100.00;47784.34;4996355;28;20250;-84
2023/05/16 03:29:36;;;;;;;97.60;43.63;;;;;;;-141.97;100.00;47770.88;4996559;28;20172;-83
2023/05/16 03:32:02;;;;;;;106.93;45.30;;;;;;;-141.97;100.00;47909.28;4995352;28;20648;-83
2023/05/16 03:34:28;;;;;;;105.07;46.77;;;;;;;-141.97;100.00;47822.78;4996215;28;20194;-83
2023/05/16 03:36:53;;;;;;;97.50;43.13;;;;;;;-141.97;100.00;47790.09;4996259;28;20582;-83
2023/05/16 03:39:18;;;;;;;95.97;42.97;;;;;;;-141.97;100.00;47770.88;4996179;28;20199;-83
2023/05/16 03:41:44;;;;;;;90.67;42.80;;;;;;;-141.97;100.00;47782.41;4997197;28;20659;-83
2023/05/16 03:44:09;;;;;;;90.13;43.47;;;;;;;-141.97;100.00;47832.38;4995664;28;20546;-84
2023/05/16 03:46:35;;;;;;;106.70;49.97;;;;;;;-141.97;100.00;47757.41;4995208;28;20177;-82
2023/05/16 03:49:01;;;;;;;116.60;51.73;;;;;;;-141.97;100.00;47707.44;4994277;28;20258;-83
2023/05/16 03:51:27;;;;;;;125.67;60.90;;;;;;;-141.97;100.00;47780.47;4994553;28;20254;-83
2023/05/16 03:53:52;;;;;;;107.23;49.93;;;;;;;-141.97;100.00;47761.25;4994794;28;20207;-83
2023/05/16 03:56:18;;;;;;;105.83;48.17;;;;;;;-141.97;100.00;47768.94;4995450;28;20274;-84
2023/05/16 03:58:43;;;;;;;96.63;46.77;;;;;;;-141.97;100.00;47757.41;4996207;28;20186;-83
2023/05/16 04:01:09;;;;;;;102.27;47.03;;;;;;;-141.97;100.00;47822.78;4995407;28;20169;-83
2023/05/16 04:03:34;;;;;;;100.70;48.43;;;;;;;-141.97;100.00;47820.84;4995336;28;20700;-83
2023/05/16 04:06:00;;;;;;;123.40;52.57;;;;;;;-141.97;100.00;47945.81;4995708;28;20666;-84
2023/05/16 04:08:26;;;;;;;104.43;48.53;;;;;;;-141.97;100.00;47784.34;4994747;28;20177;-83
2023/05/16 04:10:51;;;;;;;116.03;50.03;;;;;;;-141.97;100.00;47747.81;4995441;28;20540;-83
2023/05/16 04:13:17;;;;;;;96.70;45.47;;;;;;;-141.97;100.00;47765.09;4996650;28;20171;-83
2023/05/16 04:15:42;;;;;;;97.03;45.57;;;;;;;-141.97;100.00;47799.72;4978036;28;20186;-83
2023/05/16 04:18:08;;;;;;;95.93;45.60;;;;;;;-141.97;100.00;47820.84;4995123;28;20285;-83
2023/05/16 04:20:34;;;;;;;104.23;46.33;;;;;;;-141.97;100.00;47755.50;4994703;28;20231;-83
2023/05/16 04:23:00;;;;;;;95.27;44.27;;;;;;;-141.97;100.00;47792.03;4994626;28;20254;-83
2023/05/16 04:25:25;;;;;;;103.80;45.20;;;;;;;-141.97;100.00;47772.78;4995212;28;20195;-84
2023/05/16 04:27:51;;;;;;;98.50;44.77;;;;;;;-141.97;100.00;47792.03;4995610;28;20201;-82
2023/05/16 04:30:17;;;;;;;105.60;51.13;;;;;;;-141.97;100.00;47784.34;4994771;28;20230;-83
2023/05/16 04:32:42;;;;;;;104.77;48.77;;;;;;;-141.97;100.00;47784.34;4994875;28;20199;-84
2023/05/16 04:35:08;;;;;;;108.77;54.67;;;;;;;-141.97;100.00;47788.19;4995420;28;20167;-85
2023/05/16 04:37:34;;;;;;;131.87;61.93;;;;;;;-141.97;100.00;47788.19;4995066;28;20210;-83
2023/05/16 04:39:59;;;;;;;134.23;62.80;;;;;;;-141.97;100.00;47780.47;4995240;28;20187;-83
2023/05/16 04:42:25;;;;;;;135.93;69.13;;;;;;;-141.97;100.00;47784.34;4999300;28;20716;-85
2023/05/16 04:44:51;;;;;;;137.47;66.97;;;;;;;-141.97;100.00;47753.56;5008258;28;20155;-83
2023/05/16 04:47:16;;;;;;;114.97;55.37;;;;;;;-141.97;100.00;47738.19;5006744;28;20214;-84
2023/05/16 04:49:42;;;;;;;100.60;45.43;;;;;;;-141.97;100.00;47680.53;4998893;28;20226;-83
2023/05/16 04:52:07;;;;;;;97.30;45.23;;;;;;;-141.97;100.00;47792.03;4996235;28;20186;-84
2023/05/16 04:54:33;;;;;;;88.63;43.37;;;;;;;-141.97;100.00;47738.19;4995167;28;20178;-85
2023/05/16 04:56:58;;;;;;;94.17;45.70;;;;;;;-141.97;100.00;47780.47;4994593;28;20380;-85
2023/05/16 04:59:24;;;;;;;90.50;42.57;;;;;;;-141.97;100.00;47799.72;4994832;28;20536;-84
2023/05/16 05:01:50;;;;;;;94.07;43.43;;;;;;;-141.97;100.00;47761.25;4994872;28;20226;-84
2023/05/16 05:04:16;;;;;;;98.07;43.17;;;;;;;-141.97;100.00;47770.88;4994782;28;20256;-83
2023/05/16 05:06:42;;;;;;;84.37;43.00;;;;;;;-141.97;100.00;47767.03;4994586;28;20163;-83
2023/05/16 05:09:07;;;;;;;89.67;44.33;;;;;;;-141.97;100.00;47694.00;4993917;28;20173;-84
2023/05/16 05:11:33;;;;;;;82.43;42.97;;;;;;;-141.97;100.00;47768.94;4995018;28;20249;-85
2023/05/16 05:13:58;;;;;;;86.40;42.77;;;;;;;-141.97;100.00;47767.03;4995299;28;20171;-84
2023/05/16 05:16:24;;;;;;;92.20;44.77;;;;;;;-141.97;100.00;47761.25;4994142;28;20195;-84
2023/05/16 05:18:49;;;;;;;100.60;47.70;;;;;;;-141.97;100.00;47736.28;4994545;28;20254;-85
2023/05/16 05:21:14;;;;;;;84.03;44.97;;;;;;;-141.97;100.00;47878.53;4995456;28;20167;-85
2023/05/16 05:23:40;;;;;;;94.87;46.20;;;;;;;-141.97;100.00;47751.66;4994858;28;20176;-85
2023/05/16 05:26:05;;;;;;;83.30;44.53;;;;;;;-141.97;100.00;47738.19;4994958;28;20175;-85
2023/05/16 05:28:31;;;;;;;66.80;38.80;;;;;;;-141.97;100.00;47765.09;4977210;28;20227;-86
2023/05/16 05:30:56;;;;;;;64.73;37.50;;;;;;;-141.97;100.00;47738.19;4993927;28;20185;-85
2023/05/16 05:33:28;;;;;;;66.30;35.97;;;;;;;-141.97;100.00;47686.31;4994570;28;20214;-84
2023/05/16 05:35:54;;;;;;;57.37;34.70;;;;;;;-141.97;100.00;47792.03;4993648;28;20171;-84
2023/05/16 05:38:19;;;;;;;62.47;35.07;;;;;;;-141.97;100.00;47895.81;4996890;28;20171;-84
2023/05/16 05:40:45;;;;;;;59.53;34.20;;;;;;;-141.97;100.00;47722.81;4997873;28;20191;-84
2023/05/16 05:43:10;;;;;;;54.73;31.77;;;;;;;-141.97;100.00;47722.81;4997515;28;20553;-84
2023/05/16 05:45:36;;;;;;;52.70;32.30;;;;;;;-141.97;100.00;47713.22;4996609;28;20569;-84
2023/05/16 05:48:02;;;;;;;47.50;29.17;;;;;;;-141.97;100.00;47718.97;4997317;28;20175;-84
2023/05/16 05:50:27;;;;;;;48.43;29.10;;;;;;;-141.97;100.00;47918.88;4996365;28;20190;-84
2023/05/16 05:52:54;;;;;;;45.47;28.30;;;;;;;-141.97;100.00;47707.44;4997643;28;20178;-85
2023/05/16 05:55:20;;;;;;;46.47;27.30;;;;;;;-141.97;100.00;47753.56;4998984;28;20176;-85
2023/05/16 05:57:45;;;;;;;38.50;25.87;;;;;;;-141.97;100.00;47694.00;5000452;28;20210;-84
2023/05/16 06:00:11;;;;;;;40.40;25.23;;;;;;;-141.97;100.00;47742.03;4998826;28;20231;-85
2023/05/16 06:02:36;;;;;;;45.03;26.60;;;;;;;-141.97;100.00;47872.75;4997893;28;20755;-84
2023/05/16 06:05:02;;;;;;;41.07;26.00;;;;;;;-141.97;100.00;47757.41;4997373;28;20215;-83
2023/05/16 06:07:27;;;;;;;42.40;26.63;;;;;;;-141.97;100.00;47868.91;4979623;28;20164;-84
2023/05/16 06:09:53;;;;;;;36.87;24.53;;;;;;;-141.97;100.00;47753.56;4996507;28;20174;-84
2023/05/16 06:12:18;;;;;;;41.63;24.43;;;;;;;-141.97;100.00;47911.19;4996696;28;20620;-85
2023/05/16 06:14:43;;;;;;;37.83;24.20;;;;;;;-141.97;100.00;47709.38;4997792;28;20175;-83
2023/05/16 06:17:09;;;;;;;40.70;24.47;;;;;;;-141.97;100.00;47776.63;5007644;28;20714;-84
2023/05/16 06:19:34;;;;;;;37.57;24.27;;;;;;;-141.97;100.00;47768.94;5009540;28;20175;-84
2023/05/16 06:21:59;;;;;;;35.20;23.27;;;;;;;-141.97;100.00;47763.19;5005383;28;20184;-83
2023/05/16 06:24:25;;;;;;;35.63;22.60;;;;;;;-141.97;100.00;47722.81;4997355;28;20171;-84
2023/05/16 06:26:51;;;;;;;33.87;22.07;;;;;;;-141.97;100.00;47711.28;4996896;28;20171;-84
2023/05/16 06:29:16;;;;;;;34.23;20.57;;;;;;;-141.97;100.00;47740.13;4986428;28;20231;-84
2023/05/16 06:31:42;;;;;;;38.27;24.67;;;;;;;-141.97;100.00;47745.88;4996078;28;20152;-83
2023/05/16 06:34:08;;;;;;;39.97;23.80;;;;;;;-141.97;100.00;47784.34;4996107;28;20623;-84
2023/05/16 06:36:33;;;;;;;35.50;20.50;;;;;;;-141.97;100.00;47743.97;4996021;28;20663;-84
2023/05/16 06:38:58;;;;;;;37.40;20.87;;;;;;;-141.97;100.00;47717.06;5010984;28;20547;-84
2023/05/16 06:41:25;;;;;;;37.23;22.00;;;;;;;-141.97;100.00;47788.19;4994863;28;20265;-83
2023/05/16 06:43:51;;;;;;;30.03;19.80;;;;;;;-141.97;100.00;47755.50;4994157;28;20551;-83
2023/05/16 06:46:16;;;;;;;34.43;21.20;;;;;;;-141.97;100.00;47753.56;4995278;28;20199;-83
2023/05/16 06:48:42;;;;;;;34.50;20.87;;;;;;;-141.97;100.00;47753.56;4995460;28;20199;-85
2023/05/16 06:51:07;;;;;;;34.03;21.23;;;;;;;-141.97;100.00;47753.56;4994766;28;20179;-83
2023/05/16 06:53:32;;;;;;;31.70;20.37;;;;;;;-141.97;100.00;47715.13;4994684;28;20333;-83
2023/05/16 06:55:58;;;;;;;32.53;20.10;;;;;;;-141.97;100.00;47715.13;4994674;28;20175;-84
2023/05/16 06:58:23;;;;;;;28.30;18.87;;;;;;;-141.97;100.00;47803.56;4994640;28;20620;-84
2023/05/16 07:00:49;;;;;;;30.70;18.73;;;;;;;-141.97;100.00;47707.44;4994183;28;20203;-83
2023/05/16 07:03:15;;;;;;;25.83;19.00;;;;;;;-141.97;100.00;47788.19;4994526;28;20580;-84
2023/05/16 07:05:40;;;;;;;26.07;18.40;;;;;;;-141.97;100.00;47680.53;4994811;28;20175;-85
2023/05/16 07:08:09;;;;;;;22.57;17.30;;;;;;;-141.97;100.00;47749.72;4994676;28;20180;-83
2023/05/16 07:10:34;;;;;;;24.87;17.87;;;;;;;-141.97;100.00;47793.94;4994492;28;20167;-83
2023/05/16 07:13:00;;;;;;;30.57;18.87;;;;;;;-141.97;100.00;47732.44;4994540;28;20169;-83
2023/05/16 07:15:26;;;;;;;25.30;17.77;;;;;;;-141.97;100.00;47743.97;4995864;28;20242;-83
2023/05/16 07:17:51;;;;;;;27.67;17.87;;;;;;;-141.97;100.00;47742.03;4994689;28;21059;-82
2023/05/16 07:20:16;;;;;;;25.57;18.07;;;;;;;-141.97;100.00;47703.59;4976198;28;20210;-83
2023/05/16 07:22:42;;;;;;;27.00;17.43;;;;;;;-141.97;100.00;47734.34;4977127;28;20180;-83
2023/05/16 07:25:11;;;;;;;24.23;17.27;;;;;;;-141.97;100.00;47859.28;4993710;28;20229;-83
2023/05/16 07:27:43;;;;;;;27.77;18.50;;;;;;;-141.97;100.00;47707.44;4996830;28;20156;-83
2023/05/16 07:30:13;;;;;;;24.83;18.40;;;;;;;-141.97;100.00;47765.09;4984908;28;20248;-82
2023/05/16 07:32:38;;;;;;;33.17;18.23;;;;;;;-141.97;100.00;47688.22;4995641;28;20217;-82
2023/05/16 07:35:04;;;;;;;27.43;19.63;;;;;;;-141.97;100.00;47724.75;5006840;28;20644;-82
2023/05/16 07:37:30;;;;;;;25.93;18.07;;;;;;;-141.97;100.00;47761.25;4994118;28;20203;-81
2023/05/16 07:39:55;;;;;;;28.07;19.00;;;;;;;-141.97;100.00;47757.41;4988578;28;20195;-82
2023/05/16 07:42:21;;;;;;;27.90;18.93;;;;;;;-141.97;100.00;47695.91;4994907;28;20742;-82
2023/05/16 07:44:46;;;;;;;27.53;19.23;;;;;;;-141.97;100.00;47817.00;4996454;28;20171;-83
2023/05/16 07:47:12;;;;;;;25.30;18.83;;;;;;;-141.97;100.00;47730.50;4995552;28;20163;-83
2023/05/16 07:49:37;;;;;;;30.87;20.30;;;;;;;-141.97;100.00;47742.03;4977945;28;20232;-81
2023/05/16 07:52:03;;;;;;;28.20;18.43;;;;;;;-141.97;100.00;47736.28;4994046;28;20183;-81
2023/05/16 07:54:30;;;;;;;26.70;18.50;;;;;;;-141.97;100.00;47724.75;4994201;28;20255;-82
2023/05/16 07:56:59;;;;;;;23.07;17.80;;;;;;;-141.97;100.00;47684.38;4993922;28;20207;-83
2023/05/16 07:59:24;;;;;;;25.73;18.67;;;;;;;-141.97;100.00;47761.25;4992565;28;20623;-83
2023/05/16 08:01:50;;;;;;;27.13;18.13;;;;;;;-141.97;100.00;47730.50;4993964;28;20203;-83
2023/05/16 08:04:16;;;;;;;28.37;18.80;;;;;;;-141.97;100.00;47703.59;4976413;28;20188;-81
2023/05/16 08:06:41;;;;;;;27.73;19.40;;;;;;;-141.97;100.00;47672.84;4987810;28;20239;-82
2023/05/16 08:09:07;;;;;;;30.80;19.37;;;;;;;-141.97;100.00;47711.28;4996573;28;20175;-83
2023/05/16 08:11:33;;;;;;;32.30;21.00;;;;;;;-141.97;100.00;47707.44;4993483;28;20613;-83
2023/05/16 08:13:59;;;;;;;32.53;20.97;;;;;;;-141.97;100.00;47703.59;4976570;28;20189;-83
2023/05/16 08:16:24;;;;;;;29.17;20.43;;;;;;;-141.97;100.00;47715.13;4993834;28;20194;-82
2023/05/16 08:18:50;;;;;;;25.80;19.13;;;;;;;-141.97;100.00;47674.78;4974453;28;20176;-83
2023/05/16 08:21:15;;;;;;;29.20;19.37;;;;;;;-141.97;100.00;47695.91;4994047;28;20201;-82
2023/05/16 08:23:40;;;;;;;28.77;18.13;;;;;;;-141.97;100.00;47722.81;4993532;28;20176;-82
2023/05/16 08:26:06;;;;;;;29.93;19.53;;;;;;;-141.97;100.00;47649.78;4994888;28;20976;-83
2023/05/16 08:28:32;;;;;;;27.47;19.40;;;;;;;-141.97;100.00;47717.06;4985226;28;20257;-82
2023/05/16 08:30:58;;;;;;;29.37;19.07;;;;;;;-141.97;100.00;47876.59;4980627;28;20183;-81
2023/05/16 08:33:23;;;;;;;31.73;19.93;;;;;;;-141.97;100.00;47757.41;4996752;28;20310;-81
2023/05/16 08:35:51;;;;;;;30.00;18.93;;;;;;;-141.97;100.00;47732.44;4998001;28;20314;-82
2023/05/16 08:38:17;;;;;;;25.40;19.03;;;;;;;-141.97;100.00;47642.09;4976332;28;20246;-82
2023/05/16 08:40:42;;;;;;;29.63;18.77;;;;;;;-141.97;100.00;47659.38;4993338;28;20167;-82
2023/05/16 08:43:08;;;;;;;24.20;18.13;;;;;;;-141.97;100.00;47709.38;4994611;28;20170;-81
2023/05/16 08:45:33;;;;;;;26.50;17.97;;;;;;;-141.97;100.00;47703.59;4994371;28;20183;-81
2023/05/16 08:48:00;;;;;;;27.73;18.63;;;;;;;-141.97;100.00;47728.59;4994011;28;20205;-81
2023/05/16 08:50:30;;;;;;;23.80;18.23;;;;;;;-141.97;100.00;47709.38;4993184;28;20187;-81
2023/05/16 08:52:56;;;;;;;25.23;18.77;;;;;;;-141.97;100.00;47722.81;4992753;28;20179;-81
2023/05/16 08:55:22;;;;;;;28.33;19.17;;;;;;;-141.97;100.00;47722.81;4994831;28;20270;-82
2023/05/16 08:57:50;;;;;;;26.03;18.80;;;;;;;-141.97;100.00;47726.66;5001121;28;20254;-80
2023/05/16 09:00:18;;;;;;;30.57;18.50;;;;;;;-141.97;100.00;47701.69;5002113;28;20183;-83
2023/05/16 09:02:43;;;;;;;28.07;18.93;;;;;;;-141.97;100.00;47720.91;4994007;28;20290;-82
2023/05/16 09:05:15;;;;;;;26.47;18.80;;;;;;;-141.97;100.00;47724.75;4993388;28;20187;-81
2023/05/16 09:07:41;;;;;;;27.40;19.23;;;;;;;-141.97;100.00;47711.28;4993355;28;20184;-81
2023/05/16 09:10:07;;;;;;;27.03;19.27;;;;;;;-141.97;100.00;47724.75;4992687;28;20258;-81
2023/05/16 09:12:36;;;;;;;26.07;18.47;;;;;;;-141.97;100.00;47709.38;4990617;28;20203;-82
2023/05/16 09:15:04;;;;;;;24.80;18.93;;;;;;;-141.97;100.00;47715.13;4993109;28;20648;-83
2023/05/16 09:17:43;;;;;;;23.77;18.33;;;;;;;-141.97;100.00;47722.81;4991883;28;20207;-82
2023/05/16 09:20:11;;;;;;;24.90;17.97;;;;;;;-141.97;100.00;47690.16;4994757;28;20207;-82
2023/05/16 09:22:37;;;;;;;24.30;17.87;;;;;;;-141.97;100.00;47695.91;5003232;28;20191;-80
2023/05/16 09:25:03;;;;;;;23.83;17.67;;;;;;;-141.97;100.00;47684.38;5005406;28;20175;-84
2023/05/16 09:27:30;;;;;;;24.00;17.33;;;;;;;-141.97;100.00;47715.13;4993858;28;20206;-81
2023/05/16 09:29:57;;;;;;;22.37;16.77;;;;;;;-141.97;100.00;47707.44;4982016;28;20235;-83
2023/05/16 09:32:23;;;;;;;21.93;16.90;;;;;;;-141.97;100.00;47711.28;4987234;28;20244;-81
2023/05/16 09:34:50;;;;;;;23.23;17.13;;;;;;;-141.97;100.00;47726.66;4989248;28;20609;-82
2023/05/16 09:37:16;;;;;;;23.73;16.57;;;;;;;-141.97;100.00;47688.22;4990847;28;20261;-82
2023/05/16 09:39:50;;;;;;;22.83;17.00;;;;;;;-141.97;100.00;47743.97;4990800;28;20674;-81
2023/05/16 09:42:17;;;;;;;23.67;16.67;;;;;;;-141.97;100.00;47638.25;4990714;28;20181;-83
2023/05/16 09:44:48;;;;;;;23.20;18.07;;;;;;;-141.97;100.00;47715.13;4990621;28;20259;-81
2023/05/16 09:47:18;;;;;;;25.93;17.87;;;;;;;-141.97;100.00;47747.81;4991258;28;20171;-82
2023/05/16 09:49:51;;;;;;;25.10;18.17;;;;;;;-141.97;100.00;47709.38;4989874;28;20176;-82
2023/05/16 09:52:17;;;;;;;24.00;17.70;;;;;;;-141.97;100.00;47730.50;4989104;28;20632;-82
2023/05/16 09:54:45;;;;;;;23.20;18.07;;;;;;;-141.97;100.00;47692.06;4990969;28;20168;-81
2023/05/16 09:57:11;;;;;;;25.33;17.90;;;;;;;-141.97;100.00;47726.66;4991196;28;20207;-82
2023/05/16 09:59:39;;;;;;;24.37;18.80;;;;;;;-141.97;100.00;47705.53;4989749;28;20174;-83
2023/05/16 10:02:06;;;;;;;23.03;17.60;;;;;;;-141.97;100.00;47695.91;4951361;28;1142698;-83
2023/05/16 10:04:34;;;;;;;22.43;18.03;;;;;;;-141.97;100.00;47755.50;4992170;28;20183;-83
2023/05/16 10:07:03;;;;;;;23.07;17.80;;;;;;;-141.97;100.00;47732.44;4990558;28;20209;-82
2023/05/16 10:09:31;;;;;;;24.43;18.03;;;;;;;-141.97;100.00;47722.81;4991611;28;20160;-82
2023/05/16 10:12:01;;;;;;;23.43;18.00;;;;;;;-141.97;100.00;47663.22;5007354;28;20180;-82
2023/05/16 10:14:27;;;;;;;25.97;18.17;;;;;;;-141.97;100.00;47711.28;4996105;28;20167;-82
2023/05/16 10:16:53;;;;;;;23.73;18.10;;;;;;;-141.97;100.00;47665.16;4992470;28;20211;-82
2023/05/16 10:19:22;;;;;;;24.17;18.20;;;;;;;-141.97;100.00;47895.81;4995729;28;20167;-81
2023/05/16 10:21:53;;;;;;;22.77;17.63;;;;;;;-141.97;100.00;47707.44;4990682;28;20218;-82
2023/05/16 10:24:28;;;;;;;23.43;17.43;;;;;;;-141.97;100.00;47649.78;4991355;28;20175;-81
2023/05/16 10:26:53;;;;;;;23.00;18.83;;;;;;;-141.97;100.00;47669.00;4995604;28;20178;-81
2023/05/16 10:29:19;;;;;;;24.80;19.17;;;;;;;-141.97;100.00;47684.38;4984923;28;20235;-82
2023/05/16 10:31:46;;;;;;;25.07;19.43;;;;;;;-141.97;100.00;47634.41;4993634;28;20187;-82
2023/05/16 10:34:11;;;;;;;25.13;19.13;;;;;;;-141.97;100.00;47722.81;4995203;28;20221;-81
2023/05/16 10:36:38;;;;;;;23.17;19.03;;;;;;;-141.97;100.00;47686.31;4994365;28;20187;-83
2023/05/16 10:39:04;;;;;;;23.47;19.03;;;;;;;-141.97;100.00;47834.31;4996253;28;20159;-82
2023/05/16 10:41:30;;;;;;;24.10;19.03;;;;;;;-141.97;100.00;47653.63;4977666;28;20190;-83
2023/05/16 10:43:56;;;;;;;25.97;19.10;;;;;;;-141.97;100.00;47697.84;4997091;28;20159;-83
2023/05/16 10:46:23;;;;;;;23.47;19.33;;;;;;;-141.97;100.00;47703.59;4995387;28;20540;-83
2023/05/16 10:48:49;;;;;;;23.07;19.13;;;;;;;-141.97;100.00;47665.16;4995753;28;20152;-83
2023/05/16 10:51:20;;;;;;;24.40;19.50;;;;;;;-141.97;100.00;47663.22;4994845;28;20647;-82